createdAt,value
2018-03-31T00:00:46.136Z,23.08
2018-03-31T00:01:51.391Z,17.52
2018-03-31T00:02:56.635Z,18.00
2018-03-31T00:04:02.242Z,19.17
2018-03-31T00:05:07.719Z,18.48
2018-03-31T00:06:12.772Z,20.58
2018-03-31T00:07:19.896Z,20.60
2018-03-31T00:08:26.008Z,19.87
2018-03-31T00:09:36.193Z,19.25
2018-03-31T00:10:41.351Z,20.05
2018-03-31T00:11:46.455Z,19.37
2018-03-31T00:12:51.952Z,19.33
2018-03-31T00:13:57.779Z,19.75
2018-03-31T00:15:03.177Z,20.15
2018-03-31T00:16:17.242Z,17.50
2018-03-31T00:17:31.223Z,19.45
2018-03-31T00:18:36.483Z,18.58
2018-03-31T00:19:41.528Z,20.15
2018-03-31T00:20:46.802Z,18.98
2018-03-31T00:23:05.809Z,20.15
2018-03-31T00:24:14.397Z,21.85
2018-03-31T00:25:19.458Z,22.27
2018-03-31T00:26:24.148Z,19.67
2018-03-31T00:27:28.874Z,20.48
2018-03-31T00:28:33.859Z,18.48
2018-03-31T00:29:38.851Z,21.12
2018-03-31T00:30:43.873Z,20.60
2018-03-31T00:31:48.925Z,20.80
2018-03-31T00:32:53.923Z,20.10
2018-03-31T00:33:59.619Z,19.05
2018-03-31T00:35:05.227Z,24.33
2018-03-31T00:36:10.516Z,20.50
2018-03-31T00:37:20.444Z,23.92
2018-03-31T00:38:25.476Z,16.75
2018-03-31T00:39:30.283Z,20.83
2018-03-31T00:40:35.330Z,19.98
2018-03-31T00:41:40.479Z,22.75
2018-03-31T00:42:46.821Z,21.58
2018-03-31T00:43:53.058Z,19.98
2018-03-31T00:44:58.058Z,20.37
2018-03-31T00:46:03.164Z,20.58
2018-03-31T00:47:07.922Z,21.15
2018-03-31T00:48:12.674Z,19.92
2018-03-31T00:49:17.446Z,18.87
2018-03-31T00:50:25.508Z,19.58
2018-03-31T00:51:30.786Z,20.33
2018-03-31T00:52:36.602Z,22.42
2018-03-31T00:53:41.942Z,20.27
2018-03-31T00:54:47.001Z,23.50
2018-03-31T00:55:52.015Z,22.87
2018-03-31T00:56:56.749Z,22.92
2018-03-31T00:58:02.409Z,22.25
2018-03-31T00:59:07.473Z,23.15
2018-03-31T01:00:12.533Z,21.50
2018-03-31T01:01:17.590Z,20.75
2018-03-31T01:02:22.628Z,20.92
2018-03-31T01:03:27.895Z,23.33
2018-03-31T01:04:32.934Z,22.40
2018-03-31T01:05:37.980Z,23.45
2018-03-31T01:06:42.981Z,20.52
2018-03-31T01:07:48.002Z,23.95
2018-03-31T01:08:53.048Z,21.33
2018-03-31T01:09:58.058Z,22.77
2018-03-31T01:11:05.078Z,22.00
2018-03-31T01:12:10.097Z,21.65
2018-03-31T01:13:14.787Z,21.00
2018-03-31T01:14:19.795Z,26.08
2018-03-31T01:15:26.758Z,23.85
2018-03-31T01:16:32.256Z,23.77
2018-03-31T01:17:37.298Z,21.20
2018-03-31T01:18:42.269Z,26.67
2018-03-31T01:19:47.020Z,21.62
2018-03-31T01:20:51.789Z,22.75
2018-03-31T01:21:56.774Z,22.15
2018-03-31T01:23:05.404Z,21.98
2018-03-31T01:24:10.119Z,24.30
2018-03-31T01:25:15.609Z,22.05
2018-03-31T01:26:20.892Z,20.60
2018-03-31T01:27:25.893Z,23.08
2018-03-31T01:28:30.586Z,23.23
2018-03-31T01:29:35.319Z,20.88
2018-03-31T01:30:40.633Z,22.25
2018-03-31T01:31:45.356Z,20.80
2018-03-31T01:32:50.072Z,26.23
2018-03-31T01:33:55.072Z,22.40
2018-03-31T01:34:59.872Z,21.60
2018-03-31T01:36:05.579Z,24.73
2018-03-31T01:37:13.797Z,23.70
2018-03-31T01:38:18.809Z,25.67
2018-03-31T01:39:23.591Z,23.08
2018-03-31T01:40:28.676Z,24.50
2018-03-31T01:41:33.670Z,24.37
2018-03-31T01:42:41.427Z,23.52
2018-03-31T01:43:48.037Z,27.37
2018-03-31T01:44:52.958Z,22.33
2018-03-31T01:45:58.054Z,24.67
2018-03-31T01:47:03.061Z,31.08
2018-03-31T01:48:07.782Z,24.00
2018-03-31T01:49:12.573Z,23.80
2018-03-31T01:50:17.565Z,23.80
2018-03-31T01:51:22.585Z,25.37
2018-03-31T01:52:32.257Z,23.50
2018-03-31T01:53:36.961Z,25.08
2018-03-31T01:54:41.696Z,21.25
2018-03-31T01:55:46.413Z,23.98
2018-03-31T01:56:51.450Z,25.90
2018-03-31T01:57:56.564Z,24.08
2018-03-31T01:59:01.924Z,23.95
2018-03-31T02:00:12.934Z,24.67
2018-03-31T02:01:17.938Z,23.12
2018-03-31T02:02:22.965Z,26.30
2018-03-31T02:03:27.967Z,26.60
2018-03-31T02:04:32.759Z,23.98
2018-03-31T02:05:37.488Z,26.37
2018-03-31T02:06:42.267Z,22.15
2018-03-31T02:07:47.303Z,27.65
2018-03-31T02:08:52.001Z,27.13
2018-03-31T02:09:58.970Z,25.25
2018-03-31T02:11:03.700Z,29.25
2018-03-31T02:12:08.476Z,24.23
2018-03-31T02:13:13.221Z,27.60
2018-03-31T02:14:18.298Z,24.08
2018-03-31T02:15:23.032Z,24.45
2018-03-31T02:16:27.789Z,29.65
2018-03-31T02:17:32.530Z,25.88
2018-03-31T02:18:37.229Z,29.67
2018-03-31T02:19:44.145Z,28.23
2018-03-31T02:20:52.200Z,26.58
2018-03-31T02:21:56.912Z,27.77
2018-03-31T02:23:04.928Z,27.05
2018-03-31T02:24:09.963Z,27.23
2018-03-31T02:25:14.506Z,25.80
2018-03-31T02:26:19.536Z,27.92
2018-03-31T02:27:24.836Z,26.00
2018-03-31T02:28:29.972Z,31.70
2018-03-31T02:29:34.979Z,26.27
2018-03-31T02:30:39.748Z,28.70
2018-03-31T02:31:52.529Z,25.65
2018-03-31T02:33:02.629Z,28.20
2018-03-31T02:34:13.447Z,25.23
2018-03-31T02:35:20.006Z,25.25
2018-03-31T02:36:25.041Z,26.83
2018-03-31T02:37:29.752Z,27.42
2018-03-31T02:38:34.751Z,29.75
2018-03-31T02:39:39.778Z,32.08
2018-03-31T02:40:44.606Z,30.88
2018-03-31T02:41:53.048Z,27.73
2018-03-31T02:42:58.034Z,32.67
2018-03-31T02:44:03.048Z,27.67
2018-03-31T02:45:07.808Z,31.15
2018-03-31T02:46:12.569Z,30.65
2018-03-31T02:47:17.559Z,30.83
2018-03-31T02:48:22.583Z,27.85
2018-03-31T02:49:28.128Z,33.33
2018-03-31T02:50:33.307Z,28.73
2018-03-31T02:51:38.328Z,30.37
2018-03-31T02:52:43.392Z,31.45
2018-03-31T02:53:48.130Z,31.80
2018-03-31T02:54:53.117Z,29.63
2018-03-31T02:55:58.088Z,27.62
2018-03-31T02:57:03.100Z,29.10
2018-03-31T02:58:13.913Z,31.42
2018-03-31T02:59:19.941Z,31.25
2018-03-31T03:00:24.662Z,31.90
2018-03-31T03:01:29.415Z,33.22
2018-03-31T03:02:34.188Z,32.22
2018-03-31T03:03:38.908Z,30.17
2018-03-31T03:04:43.678Z,33.85
2018-03-31T03:05:48.205Z,35.58
2018-03-31T03:06:53.243Z,33.25
2018-03-31T03:07:58.282Z,34.97
2018-03-31T03:09:06.752Z,30.67
2018-03-31T03:10:12.645Z,32.30
2018-03-31T03:11:17.704Z,34.05
2018-03-31T03:12:23.028Z,35.17
2018-03-31T03:13:34.840Z,37.70
2018-03-31T03:14:43.270Z,35.42
2018-03-31T03:15:49.585Z,32.13
2018-03-31T03:16:54.044Z,36.00
2018-03-31T03:17:58.488Z,34.65
2018-03-31T03:19:07.921Z,35.10
2018-03-31T03:20:12.392Z,39.33
2018-03-31T03:21:24.369Z,33.35
2018-03-31T03:22:29.468Z,35.30
2018-03-31T03:23:33.922Z,35.80
2018-03-31T03:24:38.417Z,40.12
2018-03-31T03:25:42.941Z,36.33
2018-03-31T03:26:47.411Z,37.63
2018-03-31T03:27:51.893Z,37.38
2018-03-31T03:28:57.355Z,43.13
2018-03-31T03:30:01.806Z,38.28
2018-03-31T03:31:06.301Z,41.60
2018-03-31T03:32:10.773Z,39.92
2018-03-31T03:33:15.346Z,39.47
2018-03-31T03:34:19.788Z,42.10
2018-03-31T03:35:24.245Z,42.53
2018-03-31T03:36:28.750Z,43.60
2018-03-31T03:37:33.172Z,43.65
2018-03-31T03:38:37.658Z,44.88
2018-03-31T03:39:42.148Z,42.60
2018-03-31T03:40:46.604Z,42.45
2018-03-31T03:41:51.191Z,45.33
2018-03-31T03:43:00.606Z,45.03
2018-03-31T03:44:05.087Z,44.95
2018-03-31T03:45:09.601Z,44.03
2018-03-31T03:46:14.046Z,45.58
2018-03-31T03:47:18.535Z,48.30
2018-03-31T03:48:33.985Z,41.35
2018-03-31T03:49:38.476Z,44.80
2018-03-31T03:50:42.995Z,47.17
2018-03-31T03:51:47.455Z,46.92
2018-03-31T03:52:56.875Z,43.60
2018-03-31T03:54:01.365Z,46.97
2018-03-31T03:55:05.840Z,41.28
2018-03-31T03:56:10.283Z,46.92
2018-03-31T03:57:14.733Z,50.58
2018-03-31T03:58:19.225Z,43.10
2018-03-31T03:59:23.680Z,46.97
2018-03-31T04:00:28.144Z,47.95
2018-03-31T04:01:32.697Z,47.60
2018-03-31T04:02:38.699Z,50.65
2018-03-31T04:03:48.476Z,43.58
2018-03-31T04:04:57.986Z,48.15
2018-03-31T04:06:02.457Z,46.67
2018-03-31T04:07:06.933Z,50.35
2018-03-31T04:08:11.120Z,52.60
2018-03-31T04:09:15.373Z,45.97
2018-03-31T04:10:19.835Z,50.67
2018-03-31T04:11:24.267Z,48.10
2018-03-31T04:12:28.758Z,45.40
2018-03-31T04:13:33.274Z,48.95
2018-03-31T04:14:37.711Z,50.65
2018-03-31T04:15:42.155Z,49.30
2018-03-31T04:16:46.572Z,53.05
2018-03-31T04:17:51.034Z,52.42
2018-03-31T04:18:57.309Z,85.15
2018-03-31T04:20:01.785Z,46.72
2018-03-31T04:21:06.452Z,45.03
2018-03-31T04:22:16.405Z,45.47
2018-03-31T04:23:30.952Z,48.92
2018-03-31T04:24:37.842Z,49.55
2018-03-31T04:25:42.381Z,48.13
2018-03-31T04:26:47.277Z,47.55
2018-03-31T04:27:51.781Z,49.85
2018-03-31T04:28:56.565Z,51.13
2018-03-31T04:30:01.633Z,48.63
2018-03-31T04:31:06.808Z,49.92
2018-03-31T04:32:11.609Z,52.50
2018-03-31T04:33:16.257Z,47.30
2018-03-31T04:34:20.712Z,47.88
2018-03-31T04:35:25.480Z,51.30
2018-03-31T04:36:29.914Z,51.92
2018-03-31T04:37:34.361Z,45.95
2018-03-31T04:38:38.991Z,51.92
2018-03-31T04:39:44.632Z,51.92
2018-03-31T04:40:49.199Z,53.67
2018-03-31T04:41:53.856Z,52.25
2018-03-31T04:42:58.374Z,49.80
2018-03-31T04:44:02.980Z,47.65
2018-03-31T04:45:07.429Z,47.10
2018-03-31T04:46:11.894Z,53.72
2018-03-31T04:47:16.378Z,47.30
2018-03-31T04:48:20.877Z,53.75
2018-03-31T04:49:25.491Z,56.88
2018-03-31T04:50:29.705Z,53.13
2018-03-31T04:51:33.904Z,51.35
2018-03-31T04:52:43.533Z,56.70
2018-03-31T04:53:47.835Z,49.70
2018-03-31T04:54:52.275Z,51.40
2018-03-31T04:55:56.729Z,53.05
2018-03-31T04:57:01.171Z,57.20
2018-03-31T04:58:05.639Z,56.47
2018-03-31T04:59:10.277Z,49.47
2018-03-31T05:00:14.743Z,50.50
2018-03-31T05:01:19.400Z,49.97
2018-03-31T05:02:24.204Z,49.72
2018-03-31T05:03:33.982Z,50.90
2018-03-31T05:04:38.231Z,48.33
2018-03-31T05:05:43.015Z,54.65
2018-03-31T05:06:47.620Z,51.40
2018-03-31T05:07:56.385Z,51.40
2018-03-31T05:09:01.132Z,55.35
2018-03-31T05:10:05.349Z,55.30
2018-03-31T05:11:10.009Z,50.35
2018-03-31T05:12:19.708Z,54.35
2018-03-31T05:13:24.257Z,53.25
2018-03-31T05:14:29.248Z,52.78
2018-03-31T05:15:34.103Z,57.40
2018-03-31T05:16:38.894Z,54.10
2018-03-31T05:17:43.885Z,54.17
2018-03-31T05:19:08.773Z,57.25
2018-03-31T05:20:13.582Z,54.65
2018-03-31T05:21:20.221Z,52.65
2018-03-31T05:22:24.678Z,52.75
2018-03-31T05:23:29.144Z,54.03
2018-03-31T05:24:33.655Z,53.20
2018-03-31T05:25:38.117Z,50.17
2018-03-31T05:26:42.612Z,55.30
2018-03-31T05:27:46.860Z,53.67
2018-03-31T05:28:51.462Z,49.75
2018-03-31T05:29:56.116Z,51.78
2018-03-31T05:31:00.548Z,53.05
2018-03-31T05:32:05.389Z,55.47
2018-03-31T05:33:09.955Z,52.47
2018-03-31T05:34:18.322Z,48.13
2018-03-31T05:35:23.051Z,54.72
2018-03-31T05:36:28.360Z,50.45
2018-03-31T05:37:32.908Z,51.88
2018-03-31T05:38:37.771Z,52.38
2018-03-31T05:39:42.631Z,52.53
2018-03-31T05:40:47.766Z,58.33
2018-03-31T05:41:52.525Z,57.72
2018-03-31T05:42:56.992Z,52.60
2018-03-31T05:44:01.478Z,55.42
2018-03-31T05:45:05.960Z,52.83
2018-03-31T05:46:14.762Z,54.47
2018-03-31T05:47:21.721Z,61.40
2018-03-31T05:48:26.186Z,54.95
2018-03-31T05:49:30.829Z,56.63
2018-03-31T05:50:35.556Z,59.35
2018-03-31T05:51:40.049Z,56.60
2018-03-31T05:52:47.844Z,64.78
2018-03-31T05:53:52.093Z,57.85
2018-03-31T05:54:56.952Z,60.72
2018-03-31T05:56:01.465Z,52.58
2018-03-31T05:57:05.898Z,55.70
2018-03-31T05:58:10.450Z,53.78
2018-03-31T05:59:14.906Z,59.80
2018-03-31T06:00:19.367Z,55.03
2018-03-31T06:01:23.856Z,56.30
2018-03-31T06:02:33.392Z,55.35
2018-03-31T06:03:37.869Z,55.95
2018-03-31T06:04:42.596Z,60.92
2018-03-31T06:05:47.056Z,62.05
2018-03-31T06:06:51.519Z,55.15
2018-03-31T06:07:59.840Z,55.03
2018-03-31T06:09:04.052Z,60.90
2018-03-31T06:10:08.529Z,59.58
2018-03-31T06:11:13.010Z,55.83
2018-03-31T06:12:22.660Z,53.17
2018-03-31T06:13:27.264Z,59.10
2018-03-31T06:14:31.712Z,53.72
2018-03-31T06:15:36.156Z,55.45
2018-03-31T06:16:44.651Z,56.47
2018-03-31T06:17:50.355Z,57.78
2018-03-31T06:18:54.835Z,61.72
2018-03-31T06:19:59.289Z,61.05
2018-03-31T06:21:03.760Z,51.37
2018-03-31T06:22:08.199Z,58.97
2018-03-31T06:23:17.943Z,54.47
2018-03-31T06:24:28.199Z,57.45
2018-03-31T06:25:32.656Z,55.92
2018-03-31T06:26:37.197Z,53.50
2018-03-31T06:27:41.697Z,54.65
2018-03-31T06:28:46.168Z,56.47
2018-03-31T06:29:50.579Z,51.22
2018-03-31T06:30:57.938Z,55.28
2018-03-31T06:32:04.824Z,58.47
2018-03-31T06:33:10.224Z,57.35
2018-03-31T06:34:15.435Z,52.45
2018-03-31T06:35:20.351Z,53.08
2018-03-31T06:36:26.186Z,52.80
2018-03-31T06:37:31.675Z,56.00
2018-03-31T06:38:36.659Z,55.22
2018-03-31T06:39:42.714Z,56.47
2018-03-31T06:40:47.581Z,54.30
2018-03-31T06:41:52.304Z,57.53
2018-03-31T06:42:57.126Z,59.65
2018-03-31T06:44:06.880Z,54.05
2018-03-31T06:45:12.111Z,56.10
2018-03-31T06:46:16.940Z,58.33
2018-03-31T06:47:21.419Z,56.80
2018-03-31T06:48:25.866Z,59.45
2018-03-31T06:49:30.185Z,54.22
2018-03-31T06:50:41.091Z,56.95
2018-03-31T06:51:45.720Z,63.55
2018-03-31T06:52:50.524Z,60.05
2018-03-31T06:53:56.287Z,59.00
2018-03-31T06:55:01.521Z,58.03
2018-03-31T06:56:06.869Z,55.72
2018-03-31T06:57:11.819Z,61.47
2018-03-31T06:58:17.486Z,58.80
2018-03-31T06:59:25.795Z,63.78
2018-03-31T07:00:30.784Z,60.97
2018-03-31T07:01:35.747Z,58.20
2018-03-31T07:02:40.827Z,61.08
2018-03-31T07:03:45.994Z,59.97
2018-03-31T07:04:51.652Z,64.93
2018-03-31T07:05:56.988Z,59.35
2018-03-31T07:07:01.940Z,59.00
2018-03-31T07:08:08.073Z,61.13
2018-03-31T07:09:13.519Z,61.72
2018-03-31T07:10:19.928Z,60.65
2018-03-31T07:11:28.768Z,58.15
2018-03-31T07:12:33.863Z,59.70
2018-03-31T07:13:38.919Z,59.55
2018-03-31T07:14:43.758Z,57.55
2018-03-31T07:15:48.645Z,58.92
2018-03-31T07:16:53.798Z,53.47
2018-03-31T07:17:59.987Z,58.38
2018-03-31T07:19:04.957Z,59.78
2018-03-31T07:20:09.602Z,64.97
2018-03-31T07:21:14.625Z,65.18
2018-03-31T07:22:22.298Z,62.97
2018-03-31T07:23:27.207Z,61.28
2018-03-31T07:24:32.356Z,63.22
2018-03-31T07:25:37.205Z,66.82
2018-03-31T07:26:46.740Z,62.65
2018-03-31T07:27:52.101Z,62.00
2018-03-31T07:28:57.347Z,67.03
2018-03-31T07:30:02.288Z,60.30
2018-03-31T07:31:07.310Z,60.40
2018-03-31T07:32:14.296Z,61.30
2018-03-31T07:33:22.412Z,64.60
2018-03-31T07:34:27.606Z,61.67
2018-03-31T07:35:32.630Z,66.82
2018-03-31T07:36:38.596Z,68.12
2018-03-31T07:37:46.597Z,67.62
2018-03-31T07:38:53.843Z,67.82
2018-03-31T07:39:58.951Z,63.22
2018-03-31T07:41:03.981Z,59.92
2018-03-31T07:42:08.617Z,67.65
2018-03-31T07:43:13.400Z,67.40
2018-03-31T07:44:22.334Z,64.87
2018-03-31T07:45:26.801Z,63.92
2018-03-31T07:46:31.983Z,67.85
2018-03-31T07:47:37.717Z,62.15
2018-03-31T07:48:42.625Z,62.25
2018-03-31T07:49:47.075Z,65.37
2018-03-31T07:50:51.805Z,65.95
2018-03-31T07:51:56.252Z,66.53
2018-03-31T07:53:00.712Z,61.80
2018-03-31T07:54:05.181Z,65.07
2018-03-31T07:55:09.641Z,69.68
2018-03-31T07:56:14.220Z,66.53
2018-03-31T07:57:18.697Z,67.62
2018-03-31T07:58:23.152Z,65.43
2018-03-31T07:59:27.631Z,63.35
2018-03-31T08:00:32.102Z,65.95
2018-03-31T08:01:36.685Z,68.90
2018-03-31T08:02:41.178Z,68.60
2018-03-31T08:03:45.659Z,69.75
2018-03-31T08:04:50.169Z,70.35
2018-03-31T08:05:54.669Z,66.12
2018-03-31T08:06:59.448Z,66.15
2018-03-31T08:08:06.802Z,68.40
2018-03-31T08:09:11.251Z,67.05
2018-03-31T08:10:15.755Z,69.15
2018-03-31T08:11:20.273Z,63.08
2018-03-31T08:12:24.796Z,58.78
2018-03-31T08:13:29.296Z,57.83
2018-03-31T08:14:33.752Z,61.58
2018-03-31T08:15:38.265Z,59.47
2018-03-31T08:16:42.760Z,58.58
2018-03-31T08:17:47.508Z,61.80
2018-03-31T08:18:52.002Z,62.92
2018-03-31T08:19:56.867Z,62.15
2018-03-31T08:21:01.441Z,56.90
2018-03-31T08:22:05.912Z,65.05
2018-03-31T08:23:13.847Z,54.42
2018-03-31T08:24:18.347Z,59.20
2018-03-31T08:25:22.890Z,60.78
2018-03-31T08:26:27.449Z,61.10
2018-03-31T08:27:31.931Z,57.97
2018-03-31T08:28:36.405Z,62.15
2018-03-31T08:29:40.988Z,64.62
2018-03-31T08:30:45.498Z,56.88
2018-03-31T08:31:49.985Z,57.13
2018-03-31T08:32:54.517Z,55.45
2018-03-31T08:33:58.992Z,57.70
2018-03-31T08:35:03.474Z,58.45
2018-03-31T08:36:12.868Z,61.37
2018-03-31T08:37:20.714Z,51.80
2018-03-31T08:38:25.546Z,57.53
2018-03-31T08:39:30.054Z,57.15
2018-03-31T08:40:34.613Z,56.83
2018-03-31T08:41:39.118Z,61.03
2018-03-31T08:42:43.589Z,56.00
2018-03-31T08:43:48.231Z,55.15
2018-03-31T08:44:52.748Z,56.90
2018-03-31T08:45:57.261Z,59.70
2018-03-31T08:47:07.300Z,54.58
2018-03-31T08:48:11.998Z,56.35
2018-03-31T08:49:16.459Z,54.35
2018-03-31T08:50:20.994Z,59.83
2018-03-31T08:51:28.961Z,53.97
2018-03-31T08:52:33.529Z,58.28
2018-03-31T08:53:38.053Z,59.55
2018-03-31T08:54:42.556Z,52.60
2018-03-31T08:55:55.577Z,52.08
2018-03-31T08:57:04.026Z,55.65
2018-03-31T08:58:10.939Z,54.05
2018-03-31T08:59:15.762Z,56.63
2018-03-31T09:00:21.150Z,54.08
2018-03-31T09:01:25.709Z,53.00
2018-03-31T09:02:30.216Z,58.47
2018-03-31T09:03:34.934Z,54.75
2018-03-31T09:04:39.618Z,55.75
2018-03-31T09:05:44.102Z,52.25
2018-03-31T09:06:48.654Z,52.72
2018-03-31T09:07:53.185Z,55.45
2018-03-31T09:08:57.660Z,53.05
2018-03-31T09:10:02.172Z,51.65
2018-03-31T09:11:06.678Z,50.03
2018-03-31T09:12:11.186Z,48.65
2018-03-31T09:13:15.684Z,53.75
2018-03-31T09:14:23.970Z,49.60
2018-03-31T09:15:28.475Z,52.85
2018-03-31T09:16:32.964Z,49.78
2018-03-31T09:17:37.473Z,51.53
2018-03-31T09:18:42.420Z,55.20
2018-03-31T09:19:48.467Z,60.03
2018-03-31T09:20:52.938Z,49.50
2018-03-31T09:21:57.258Z,49.03
2018-03-31T09:23:01.842Z,54.83
2018-03-31T09:24:06.323Z,53.75
2018-03-31T09:25:15.907Z,52.45
2018-03-31T09:26:25.535Z,53.55
2018-03-31T09:27:30.097Z,49.08
2018-03-31T09:28:34.939Z,50.25
2018-03-31T09:29:39.435Z,53.87
2018-03-31T09:30:43.952Z,55.67
2018-03-31T09:31:48.420Z,54.13
2018-03-31T09:32:52.977Z,51.72
2018-03-31T09:33:58.015Z,49.50
2018-03-31T09:35:02.565Z,50.55
2018-03-31T09:36:07.083Z,52.25
2018-03-31T09:37:11.609Z,51.22
2018-03-31T09:38:16.140Z,52.78
2018-03-31T09:39:20.660Z,54.35
2018-03-31T09:40:27.365Z,50.92
2018-03-31T09:41:31.913Z,54.00
2018-03-31T09:42:36.434Z,52.90
2018-03-31T09:43:40.999Z,55.72
2018-03-31T09:44:45.553Z,50.00
2018-03-31T09:45:51.161Z,52.80
2018-03-31T09:46:55.660Z,52.55
2018-03-31T09:48:01.338Z,50.10
2018-03-31T09:49:05.856Z,49.65
2018-03-31T09:50:10.376Z,49.60
2018-03-31T09:51:14.881Z,46.55
2018-03-31T09:52:19.453Z,55.90
2018-03-31T09:53:23.957Z,49.72
2018-03-31T09:54:28.459Z,52.62
2018-03-31T09:55:32.946Z,50.47
2018-03-31T09:56:37.541Z,49.80
2018-03-31T09:57:42.035Z,50.72
2018-03-31T09:58:46.613Z,54.63
2018-03-31T09:59:51.150Z,50.65
2018-03-31T10:01:02.339Z,52.53
2018-03-31T10:02:07.013Z,53.15
2018-03-31T10:03:11.660Z,51.97
2018-03-31T10:04:16.163Z,50.78
2018-03-31T10:05:20.628Z,51.60
2018-03-31T10:06:25.153Z,48.25
2018-03-31T10:07:29.661Z,45.95
2018-03-31T10:08:34.436Z,44.70
2018-03-31T10:09:38.956Z,48.95
2018-03-31T10:10:43.485Z,49.78
2018-03-31T10:11:48.048Z,45.72
2018-03-31T10:12:52.586Z,47.53
2018-03-31T10:13:57.120Z,49.45
2018-03-31T10:15:01.647Z,47.20
2018-03-31T10:16:06.147Z,53.97
2018-03-31T10:17:10.670Z,52.72
2018-03-31T10:18:15.194Z,50.40
2018-03-31T10:19:19.706Z,53.53
2018-03-31T10:20:24.228Z,49.35
2018-03-31T10:21:28.718Z,50.55
2018-03-31T10:22:33.263Z,47.83
2018-03-31T10:23:37.963Z,51.58
2018-03-31T10:24:47.778Z,48.80
2018-03-31T10:25:52.261Z,52.67
2018-03-31T10:26:57.178Z,45.30
2018-03-31T10:28:01.709Z,50.88
2018-03-31T10:29:06.188Z,46.17
2018-03-31T10:30:10.702Z,45.60
2018-03-31T10:31:15.238Z,46.75
2018-03-31T10:32:19.757Z,42.33
2018-03-31T10:33:36.214Z,41.65
2018-03-31T10:34:40.787Z,37.35
2018-03-31T10:35:45.357Z,39.35
2018-03-31T10:36:49.909Z,44.03
2018-03-31T10:37:59.496Z,42.00
2018-03-31T10:39:03.831Z,41.17
2018-03-31T10:40:08.313Z,40.67
2018-03-31T10:41:12.827Z,40.38
2018-03-31T10:42:17.353Z,39.42
2018-03-31T10:43:22.157Z,39.30
2018-03-31T10:44:26.747Z,35.85
2018-03-31T10:45:36.429Z,40.22
2018-03-31T10:46:41.612Z,37.72
2018-03-31T10:47:46.139Z,36.53
2018-03-31T10:48:50.661Z,41.00
2018-03-31T10:49:55.211Z,39.05
2018-03-31T10:50:59.694Z,36.72
2018-03-31T10:52:04.329Z,38.90
2018-03-31T10:53:08.832Z,35.70
2018-03-31T10:54:13.686Z,37.50
2018-03-31T10:55:23.516Z,40.10
2018-03-31T10:56:29.080Z,39.05
2018-03-31T10:57:33.581Z,41.00
2018-03-31T10:58:38.182Z,38.78
2018-03-31T10:59:42.752Z,38.40
2018-03-31T11:00:47.298Z,38.80
2018-03-31T11:01:51.885Z,37.20
2018-03-31T11:03:02.311Z,36.42
2018-03-31T11:04:07.423Z,38.67
2018-03-31T11:05:11.932Z,39.10
2018-03-31T11:06:17.446Z,39.40
2018-03-31T11:07:22.100Z,41.63
2018-03-31T11:08:36.201Z,43.85
2018-03-31T11:09:40.772Z,39.22
2018-03-31T11:10:45.275Z,35.50
2018-03-31T11:11:49.854Z,39.17
2018-03-31T11:12:54.449Z,39.13
2018-03-31T11:13:59.265Z,37.17
2018-03-31T11:15:03.779Z,38.60
2018-03-31T11:16:08.312Z,39.63
2018-03-31T11:17:12.884Z,38.45
2018-03-31T11:18:17.431Z,42.47
2018-03-31T11:19:24.523Z,39.17
2018-03-31T11:20:29.012Z,45.70
2018-03-31T11:21:33.537Z,37.65
2018-03-31T11:22:38.078Z,39.10
2018-03-31T11:23:46.830Z,40.30
2018-03-31T11:24:51.569Z,36.42
2018-03-31T11:25:56.116Z,38.55
2018-03-31T11:27:00.641Z,39.38
2018-03-31T11:28:05.666Z,37.60
2018-03-31T11:29:11.066Z,38.00
2018-03-31T11:30:21.048Z,36.92
2018-03-31T11:31:32.006Z,40.10
2018-03-31T11:32:36.502Z,40.33
2018-03-31T11:33:41.020Z,36.75
2018-03-31T11:34:45.566Z,37.65
2018-03-31T11:35:50.380Z,37.70
2018-03-31T11:37:00.196Z,37.65
2018-03-31T11:38:04.680Z,39.55
2018-03-31T11:39:09.208Z,39.72
2018-03-31T11:40:14.122Z,39.33
2018-03-31T11:41:18.609Z,36.40
2018-03-31T11:42:23.152Z,38.17
2018-03-31T11:43:27.663Z,38.13
2018-03-31T11:44:32.271Z,35.67
2018-03-31T11:45:37.028Z,36.33
2018-03-31T11:46:41.605Z,37.38
2018-03-31T11:47:46.136Z,38.80
2018-03-31T11:48:54.605Z,42.03
2018-03-31T11:50:04.588Z,39.15
2018-03-31T11:51:09.717Z,39.83
2018-03-31T11:52:15.125Z,38.92
2018-03-31T11:53:19.945Z,36.50
2018-03-31T11:54:25.029Z,38.92
2018-03-31T11:55:29.728Z,35.72
2018-03-31T11:56:34.509Z,39.75
2018-03-31T11:57:40.273Z,42.13
2018-03-31T11:58:44.801Z,40.58
2018-03-31T11:59:55.233Z,38.33
2018-03-31T12:01:00.542Z,41.70
2018-03-31T12:02:05.029Z,39.88
2018-03-31T12:03:09.640Z,40.50
2018-03-31T12:04:14.207Z,38.40
2018-03-31T12:05:19.240Z,38.55
2018-03-31T12:06:26.642Z,35.78
2018-03-31T12:07:31.170Z,37.45
2018-03-31T12:08:35.694Z,35.50
2018-03-31T12:09:40.336Z,40.10
2018-03-31T12:10:44.895Z,40.95
2018-03-31T12:11:49.156Z,43.38
2018-03-31T12:12:53.664Z,37.20
2018-03-31T12:13:58.384Z,36.45
2018-03-31T12:15:02.896Z,38.00
2018-03-31T12:16:07.596Z,36.17
2018-03-31T12:17:16.202Z,38.00
2018-03-31T12:18:20.741Z,37.63
2018-03-31T12:19:25.229Z,38.88
2018-03-31T12:20:32.704Z,35.70
2018-03-31T12:21:37.246Z,37.83
2018-03-31T12:22:41.913Z,36.97
2018-03-31T12:23:51.402Z,39.28
2018-03-31T12:24:55.940Z,34.80
2018-03-31T12:26:00.494Z,36.58
2018-03-31T12:27:05.072Z,37.05
2018-03-31T12:28:10.086Z,37.08
2018-03-31T12:29:15.578Z,39.38
2018-03-31T12:30:20.707Z,39.05
2018-03-31T12:31:26.031Z,35.45
2018-03-31T12:32:31.161Z,37.38
2018-03-31T12:33:38.355Z,37.15
2018-03-31T12:34:43.836Z,35.50
2018-03-31T12:35:48.835Z,39.80
2018-03-31T12:36:54.131Z,40.78
2018-03-31T12:37:59.319Z,37.10
2018-03-31T12:39:04.841Z,37.65
2018-03-31T12:40:10.105Z,38.50
2018-03-31T12:41:15.305Z,38.05
2018-03-31T12:42:20.733Z,37.33
2018-03-31T12:43:26.141Z,38.15
2018-03-31T12:44:31.249Z,35.83
2018-03-31T12:56:26.587Z,29.35
2018-03-31T12:57:38.513Z,28.95
2018-03-31T12:58:43.902Z,29.10
2018-03-31T12:59:48.811Z,32.38
2018-03-31T13:00:54.056Z,29.02
2018-03-31T13:02:03.206Z,30.77
2018-03-31T13:03:09.465Z,26.02
2018-03-31T13:04:15.379Z,28.83
2018-03-31T13:05:20.695Z,27.92
2018-03-31T13:06:25.706Z,25.80
2018-03-31T13:07:31.417Z,27.10
2018-03-31T13:08:36.742Z,25.70
2018-03-31T13:09:41.927Z,29.17
2018-03-31T13:10:46.915Z,32.20
2018-03-31T13:11:52.040Z,26.85
2018-03-31T13:13:02.254Z,28.38
2018-03-31T13:14:09.500Z,28.33
2018-03-31T13:15:15.440Z,31.48
2018-03-31T13:16:20.641Z,24.77
2018-03-31T13:17:26.600Z,23.90
2018-03-31T13:18:31.394Z,23.27
2018-03-31T13:19:36.125Z,26.60
2018-03-31T13:20:41.611Z,23.10
2018-03-31T13:21:47.315Z,23.77
2018-03-31T13:22:52.329Z,25.50
2018-03-31T13:23:57.371Z,20.95
2018-03-31T13:25:02.087Z,22.55
2018-03-31T13:26:14.087Z,24.05
2018-03-31T13:27:18.597Z,25.08
2018-03-31T13:28:23.341Z,21.98
2018-03-31T13:29:27.881Z,22.17
2018-03-31T13:30:33.444Z,23.60
2018-03-31T13:31:38.874Z,22.62
2018-03-31T13:32:43.457Z,23.50
2018-03-31T13:33:48.000Z,24.87
2018-03-31T13:35:01.624Z,22.77
2018-03-31T13:36:06.333Z,22.10
2018-03-31T13:37:10.891Z,20.15
2018-03-31T13:38:15.398Z,21.20
2018-03-31T13:39:19.906Z,20.88
2018-03-31T13:40:24.431Z,19.70
2018-03-31T13:41:33.968Z,19.60
2018-03-31T13:42:38.479Z,19.25
2018-03-31T13:43:42.998Z,20.05
2018-03-31T13:44:48.839Z,17.95
2018-03-31T13:45:53.325Z,18.98
2018-03-31T13:46:57.842Z,18.58
2018-03-31T13:48:02.347Z,20.00
2018-03-31T13:49:06.849Z,16.02
2018-03-31T13:50:11.418Z,19.23
2018-03-31T13:51:16.999Z,19.35
2018-03-31T13:52:21.601Z,17.90
2018-03-31T13:53:32.195Z,16.27
2018-03-31T13:54:36.741Z,16.52
2018-03-31T13:55:41.359Z,14.98
2018-03-31T13:56:45.854Z,15.93
2018-03-31T13:57:50.385Z,16.40
2018-03-31T13:58:57.508Z,16.70
2018-03-31T14:00:02.048Z,18.17
2018-03-31T14:01:06.581Z,17.20
2018-03-31T14:02:11.134Z,17.05
2018-03-31T14:03:15.753Z,16.70
2018-03-31T14:04:25.475Z,16.52
2018-03-31T14:05:34.280Z,20.17
2018-03-31T14:06:38.845Z,15.20
2018-03-31T14:07:43.440Z,16.98
2018-03-31T14:08:47.976Z,17.55
2018-03-31T14:09:52.483Z,18.20
2018-03-31T14:11:02.629Z,15.30
2018-03-31T14:12:07.142Z,15.30
2018-03-31T14:13:15.540Z,18.05
2018-03-31T14:14:20.090Z,16.80
2018-03-31T14:15:39.328Z,16.83